createdAt,value
2022-09-11T00:00:39.661Z,16.20
2022-09-11T00:03:06.026Z,16.26
2022-09-11T00:05:32.406Z,16.30
2022-09-11T00:07:58.762Z,16.26
2022-09-11T00:10:25.144Z,16.23
2022-09-11T00:12:51.450Z,16.28
2022-09-11T00:15:17.906Z,16.21
2022-09-11T00:17:44.221Z,16.24
2022-09-11T00:20:10.689Z,16.19
2022-09-11T00:22:37.141Z,16.22
2022-09-11T00:25:03.566Z,16.14
2022-09-11T00:27:29.888Z,16.13
2022-09-11T00:29:57.738Z,16.17
2022-09-11T00:32:24.349Z,16.17
2022-09-11T00:34:50.828Z,16.20
2022-09-11T00:37:17.169Z,16.16
2022-09-11T00:39:43.547Z,16.19
2022-09-11T00:42:10.118Z,16.21
2022-09-11T00:44:37.777Z,16.21
2022-09-11T00:47:09.582Z,16.20
2022-09-11T00:49:40.215Z,16.21
2022-09-11T00:52:13.424Z,16.14
2022-09-11T00:54:52.563Z,16.14
2022-09-11T00:57:23.919Z,16.20
2022-09-11T00:59:52.794Z,16.17
2022-09-11T01:02:26.728Z,16.16
2022-09-11T01:04:55.667Z,16.16
2022-09-11T01:07:24.059Z,16.17
2022-09-11T01:09:51.147Z,16.10
2022-09-11T01:12:26.614Z,16.10
2022-09-11T01:15:08.002Z,16.26
2022-09-11T01:17:37.197Z,16.19
2022-09-11T01:20:19.306Z,16.15
2022-09-11T01:23:19.492Z,16.05
2022-09-11T01:26:01.243Z,16.06
2022-09-11T01:28:54.616Z,16.04
2022-09-11T01:31:25.488Z,16.01
2022-09-11T01:34:04.774Z,16.04
2022-09-11T01:36:44.353Z,16.11
2022-09-11T01:39:13.588Z,16.08
2022-09-11T01:41:50.980Z,16.00
2022-09-11T01:44:40.569Z,16.00
2022-09-11T01:47:11.751Z,15.92
2022-09-11T01:49:45.266Z,15.89
2022-09-11T01:52:24.243Z,15.93
2022-09-11T01:54:56.029Z,15.98
2022-09-11T01:57:56.234Z,15.93
2022-09-11T02:00:23.309Z,15.93
2022-09-11T02:03:06.076Z,15.90
2022-09-11T02:06:04.228Z,15.85
2022-09-11T02:08:50.054Z,15.94
2022-09-11T02:11:20.596Z,15.87
2022-09-11T02:14:04.018Z,15.87
2022-09-11T02:16:56.022Z,15.92
2022-09-11T02:19:28.492Z,15.90
2022-09-11T02:21:57.068Z,15.91
2022-09-11T02:24:23.674Z,15.89
2022-09-11T02:26:54.892Z,15.89
2022-09-11T02:29:21.506Z,15.87
2022-09-11T02:31:48.881Z,15.89
2022-09-11T02:34:17.801Z,15.99
2022-09-11T02:37:01.188Z,15.88
2022-09-11T02:39:34.380Z,15.88
2022-09-11T02:42:27.580Z,15.93
2022-09-11T02:45:23.742Z,15.87
2022-09-11T02:48:14.679Z,15.90
2022-09-11T02:50:48.842Z,15.97
2022-09-11T02:53:28.986Z,15.98
2022-09-11T02:56:26.221Z,15.94
2022-09-11T02:59:01.341Z,15.88
2022-09-11T03:01:29.616Z,15.92
2022-09-11T03:03:57.319Z,15.90
2022-09-11T03:06:27.288Z,15.94
2022-09-11T03:08:53.782Z,15.84
2022-09-11T03:11:20.850Z,15.89
2022-09-11T03:13:49.278Z,15.81
2022-09-11T03:16:16.757Z,15.75
2022-09-11T03:18:43.874Z,15.94
2022-09-11T03:21:11.310Z,15.99
2022-09-11T03:23:38.174Z,15.90
2022-09-11T03:26:04.576Z,15.94
2022-09-11T03:28:32.019Z,15.96
2022-09-11T03:30:59.172Z,15.89
2022-09-11T03:33:26.176Z,15.94
2022-09-11T03:35:52.537Z,15.97
2022-09-11T03:38:20.002Z,15.96
2022-09-11T03:40:46.838Z,15.94
2022-09-11T03:43:13.318Z,15.89
2022-09-11T03:45:39.867Z,15.97
2022-09-11T03:48:08.469Z,15.92
2022-09-11T03:50:34.841Z,15.90
2022-09-11T03:53:01.418Z,15.83
2022-09-11T03:55:28.588Z,15.85
2022-09-11T03:57:55.210Z,15.84
2022-09-11T04:00:24.000Z,15.79
2022-09-11T04:02:57.762Z,15.77
2022-09-11T04:05:34.374Z,15.74
2022-09-11T04:08:02.152Z,15.58
2022-09-11T04:10:28.822Z,15.73
2022-09-11T04:12:57.145Z,15.78
2022-09-11T04:15:23.568Z,15.71
2022-09-11T04:17:49.941Z,15.70
2022-09-11T04:20:16.784Z,15.76
2022-09-11T04:22:45.646Z,15.72
2022-09-11T04:25:12.985Z,15.74
2022-09-11T04:27:40.274Z,15.74
2022-09-11T04:30:10.548Z,15.70
2022-09-11T04:32:37.022Z,15.70
2022-09-11T04:35:03.848Z,15.63
2022-09-11T04:37:35.803Z,15.54
2022-09-11T04:40:03.142Z,15.59
2022-09-11T04:42:30.981Z,15.64
2022-09-11T04:44:57.933Z,15.70
2022-09-11T04:47:24.317Z,15.76
2022-09-11T04:49:50.656Z,15.62
2022-09-11T04:52:17.099Z,15.51
2022-09-11T04:54:43.526Z,15.63
2022-09-11T04:57:10.302Z,15.74
2022-09-11T04:59:38.910Z,15.78
2022-09-11T05:02:08.705Z,15.75
2022-09-11T05:04:39.088Z,15.72
2022-09-11T05:07:05.742Z,15.65
2022-09-11T05:09:32.096Z,15.65
2022-09-11T05:11:58.928Z,15.62
2022-09-11T05:14:30.074Z,15.61
2022-09-11T05:16:56.786Z,15.66
2022-09-11T05:19:25.518Z,15.67
2022-09-11T05:21:51.920Z,15.66
2022-09-11T05:24:18.396Z,15.69
2022-09-11T05:26:44.803Z,15.70
2022-09-11T05:29:14.801Z,15.74
2022-09-11T05:31:53.120Z,15.78
2022-09-11T05:34:21.118Z,15.75
2022-09-11T05:36:49.005Z,15.77
2022-09-11T05:39:16.614Z,15.80
2022-09-11T05:41:43.094Z,15.86
2022-09-11T05:44:09.562Z,15.83
2022-09-11T05:46:37.484Z,15.78
2022-09-11T05:49:03.923Z,15.85
2022-09-11T05:51:30.404Z,15.85
2022-09-11T05:53:58.565Z,15.89
2022-09-11T05:56:26.210Z,15.91
2022-09-11T05:58:57.932Z,15.88
2022-09-11T06:01:31.152Z,15.92
2022-09-11T06:04:12.206Z,16.00
2022-09-11T06:06:40.760Z,15.98
2022-09-11T06:09:07.567Z,16.03
2022-09-11T06:11:34.290Z,16.06
2022-09-11T06:14:01.890Z,16.07
2022-09-11T06:16:31.693Z,16.15
2022-09-11T06:19:05.811Z,16.18
2022-09-11T06:21:32.248Z,16.23
2022-09-11T06:24:05.611Z,16.30
2022-09-11T06:26:32.748Z,16.30
2022-09-11T06:29:00.157Z,16.31
2022-09-11T06:31:27.513Z,16.35
2022-09-11T06:33:54.923Z,16.40
2022-09-11T06:36:24.278Z,16.41
2022-09-11T06:38:55.565Z,16.42
2022-09-11T06:41:24.687Z,16.46
2022-09-11T06:43:53.913Z,16.49
2022-09-11T06:46:22.960Z,16.53
2022-09-11T06:48:50.644Z,16.56
2022-09-11T06:51:23.914Z,16.59
2022-09-11T06:53:57.752Z,16.64
2022-09-11T06:56:26.864Z,16.69
2022-09-11T06:58:54.031Z,16.72
2022-09-11T07:01:24.450Z,16.77
2022-09-11T07:03:56.134Z,16.82
2022-09-11T07:06:26.293Z,16.85
2022-09-11T07:09:02.719Z,16.88
2022-09-11T07:11:44.889Z,16.88
2022-09-11T07:14:11.410Z,16.90
2022-09-11T07:16:40.578Z,16.90
2022-09-11T07:19:10.431Z,16.89
2022-09-11T07:21:38.524Z,16.94
2022-09-11T07:24:06.068Z,16.93
2022-09-11T07:26:39.482Z,16.98
2022-09-11T07:29:14.457Z,17.01
2022-09-11T07:31:42.653Z,17.06
2022-09-11T07:34:10.816Z,17.08
2022-09-11T07:36:37.542Z,17.14
2022-09-11T07:39:07.309Z,17.20
2022-09-11T07:41:38.685Z,17.22
2022-09-11T07:44:12.908Z,17.28
2022-09-11T07:46:41.356Z,17.29
2022-09-11T07:49:10.119Z,17.30
2022-09-11T07:51:37.750Z,17.23
2022-09-11T07:54:06.148Z,17.22
2022-09-11T07:56:34.783Z,17.19
2022-09-11T07:59:08.193Z,17.17
2022-09-11T08:01:36.570Z,17.16
2022-09-11T08:04:06.991Z,17.16
2022-09-11T08:06:36.696Z,17.16
2022-09-11T08:09:08.617Z,17.12
2022-09-11T08:11:45.828Z,17.13
2022-09-11T08:14:13.658Z,17.09
2022-09-11T08:16:41.537Z,17.03
2022-09-11T08:19:14.545Z,16.98
2022-09-11T08:21:41.266Z,16.92
2022-09-11T08:24:07.996Z,16.94
2022-09-11T08:26:36.165Z,16.96
2022-09-11T08:29:02.644Z,17.06
2022-09-11T08:31:32.629Z,17.13
2022-09-11T08:33:59.408Z,17.15
2022-09-11T08:36:28.542Z,17.33
2022-09-11T08:38:56.331Z,17.43
2022-09-11T08:41:43.676Z,17.46
2022-09-11T08:44:10.115Z,17.50
2022-09-11T08:46:42.281Z,17.67
2022-09-11T08:49:39.591Z,17.82
2022-09-11T08:52:06.482Z,17.84
2022-09-11T08:54:38.126Z,17.79
2022-09-11T08:57:20.540Z,17.78
2022-09-11T09:00:14.541Z,17.75
2022-09-11T09:02:57.772Z,17.72
2022-09-11T09:05:44.260Z,17.73
2022-09-11T09:08:45.157Z,17.78
2022-09-11T09:11:14.645Z,17.79
2022-09-11T09:13:42.685Z,17.80
2022-09-11T09:16:21.281Z,17.80
2022-09-11T09:18:55.536Z,17.87
2022-09-11T09:21:49.495Z,17.98
2022-09-11T09:24:19.282Z,18.04
2022-09-11T09:26:54.111Z,18.20
2022-09-11T09:29:23.421Z,18.30
2022-09-11T09:32:13.735Z,18.31
2022-09-11T09:34:43.798Z,18.26
2022-09-11T09:37:17.444Z,18.31
2022-09-11T09:39:45.029Z,18.35
2022-09-11T09:42:24.094Z,18.37
2022-09-11T09:45:09.926Z,18.34
2022-09-11T09:47:43.724Z,18.30
2022-09-11T09:50:32.117Z,18.24
2022-09-11T09:53:29.665Z,18.18
2022-09-11T09:55:58.034Z,18.14
2022-09-11T09:58:30.338Z,18.10
2022-09-11T10:00:56.678Z,18.01
2022-09-11T10:03:24.865Z,17.99
2022-09-11T10:05:54.524Z,17.94
2022-09-11T10:08:31.327Z,17.90
2022-09-11T10:11:06.705Z,17.92
2022-09-11T10:13:51.791Z,18.05
2022-09-11T10:16:27.013Z,18.22
2022-09-11T10:18:55.864Z,18.49
2022-09-11T10:21:29.557Z,18.87
2022-09-11T10:24:02.139Z,19.33
2022-09-11T10:26:43.202Z,19.62
2022-09-11T10:29:15.905Z,19.54
2022-09-11T10:31:49.758Z,19.50
2022-09-11T10:34:22.256Z,19.66
2022-09-11T10:37:23.416Z,20.03
2022-09-11T10:39:50.689Z,20.30
2022-09-11T10:42:25.803Z,20.50
2022-09-11T10:44:54.160Z,20.75
2022-09-11T10:47:20.471Z,20.83
2022-09-11T10:49:47.771Z,20.85
2022-09-11T10:52:14.092Z,20.59
2022-09-11T10:55:03.582Z,20.25
2022-09-11T10:57:43.765Z,19.96
2022-09-11T11:00:25.560Z,19.69
2022-09-11T11:03:00.344Z,19.53
2022-09-11T11:05:40.600Z,19.41
2022-09-11T11:08:50.817Z,19.36
2022-09-11T11:11:31.575Z,19.37
2022-09-11T11:14:21.119Z,19.32
2022-09-11T11:16:59.935Z,19.22
2022-09-11T11:20:07.190Z,19.51
2022-09-11T11:22:56.098Z,19.93
2022-09-11T11:25:43.780Z,19.96
2022-09-11T11:28:43.302Z,20.08
2022-09-11T11:31:40.312Z,20.13
2022-09-11T11:34:18.989Z,20.19
2022-09-11T11:36:45.972Z,20.54
2022-09-11T11:39:22.262Z,20.83
2022-09-11T11:42:07.086Z,20.75
2022-09-11T11:45:00.284Z,20.57
2022-09-11T11:47:35.665Z,20.36
2022-09-11T11:50:08.168Z,20.30
2022-09-11T11:53:07.113Z,20.18
2022-09-11T11:55:43.066Z,20.08
2022-09-11T11:58:43.562Z,20.25
2022-09-11T12:01:20.937Z,20.69
2022-09-11T12:03:54.814Z,21.05
2022-09-11T12:06:21.206Z,21.25
2022-09-11T12:08:48.339Z,21.08
2022-09-11T12:11:18.874Z,20.84
2022-09-11T12:13:47.750Z,20.62
2022-09-11T12:16:20.046Z,20.43
2022-09-11T12:19:20.762Z,20.27
2022-09-11T12:21:52.857Z,20.15
2022-09-11T12:24:22.103Z,20.05
2022-09-11T12:27:35.551Z,20.23
2022-09-11T12:30:21.161Z,20.70
2022-09-11T12:32:49.694Z,20.85
2022-09-11T12:35:21.305Z,20.68
2022-09-11T12:37:55.651Z,20.49
2022-09-11T12:40:48.329Z,20.39
2022-09-11T12:43:36.497Z,20.27
2022-09-11T12:46:06.112Z,20.16
2022-09-11T12:48:38.812Z,20.06
2022-09-11T12:51:16.468Z,19.97
2022-09-11T12:53:47.102Z,19.99
2022-09-11T12:56:20.201Z,20.01
2022-09-11T12:58:51.793Z,19.99
2022-09-11T13:01:24.827Z,19.91
2022-09-11T13:04:19.131Z,19.86
2022-09-11T13:06:48.856Z,19.81
2022-09-11T13:09:40.653Z,19.84
2022-09-11T13:12:25.627Z,19.85
2022-09-11T13:14:56.434Z,19.87
2022-09-11T13:17:28.507Z,19.81
2022-09-11T13:20:03.354Z,19.72
2022-09-11T13:22:31.213Z,19.74
2022-09-11T13:25:13.958Z,20.05
2022-09-11T13:27:46.578Z,20.32
2022-09-11T13:30:19.220Z,20.50
2022-09-11T13:32:48.917Z,20.48
2022-09-11T13:35:25.486Z,20.51
2022-09-11T13:38:18.385Z,20.59
2022-09-11T13:40:49.729Z,20.61
2022-09-11T13:43:20.689Z,20.52
2022-09-11T13:45:47.546Z,20.42
2022-09-11T13:48:23.939Z,20.23
2022-09-11T13:50:51.438Z,20.10
2022-09-11T13:53:20.151Z,20.04
2022-09-11T13:55:48.194Z,20.02
2022-09-11T13:58:24.160Z,19.97
2022-09-11T14:00:52.756Z,20.03
2022-09-11T14:03:24.333Z,20.02
2022-09-11T14:05:54.022Z,20.01
2022-09-11T14:08:32.370Z,19.96
2022-09-11T14:11:10.445Z,19.98
2022-09-11T14:13:41.339Z,19.98
2022-09-11T14:16:13.825Z,20.01
2022-09-11T14:18:53.116Z,20.01
2022-09-11T14:21:22.965Z,19.97
2022-09-11T14:23:57.334Z,20.05
2022-09-11T14:26:30.885Z,20.05
2022-09-11T14:29:27.934Z,20.05
2022-09-11T14:32:14.975Z,20.04
2022-09-11T14:34:41.317Z,20.04
2022-09-11T14:37:12.124Z,20.02
2022-09-11T14:40:06.779Z,20.06
2022-09-11T14:42:36.372Z,20.01
2022-09-11T14:45:20.342Z,20.04
2022-09-11T14:47:46.717Z,20.13
2022-09-11T14:50:13.619Z,20.15
2022-09-11T14:52:42.423Z,20.26
2022-09-11T14:55:19.394Z,20.30
2022-09-11T14:57:46.669Z,20.29
2022-09-11T15:00:15.146Z,20.30
2022-09-11T15:02:42.056Z,20.30
2022-09-11T15:05:17.058Z,20.32
2022-09-11T15:07:46.379Z,20.31
2022-09-11T15:10:13.978Z,20.34
2022-09-11T15:12:40.369Z,20.28
2022-09-11T15:15:07.338Z,20.24
2022-09-11T15:17:36.166Z,20.29
2022-09-11T15:20:08.999Z,20.31
2022-09-11T15:22:36.415Z,20.33
2022-09-11T15:25:03.522Z,20.36
2022-09-11T15:27:29.895Z,20.35
2022-09-11T15:29:56.270Z,20.36
2022-09-11T15:32:23.159Z,20.35
2022-09-11T15:34:51.554Z,20.30
2022-09-11T15:37:18.049Z,20.23
2022-09-11T15:39:44.483Z,20.15
2022-09-11T15:42:11.528Z,20.09
2022-09-11T15:44:37.972Z,20.02
2022-09-11T15:47:04.740Z,19.98
2022-09-11T15:49:31.709Z,19.88
2022-09-11T15:51:59.545Z,19.85
2022-09-11T15:54:26.958Z,19.79
2022-09-11T15:56:54.111Z,19.74
2022-09-11T15:59:20.498Z,19.70
2022-09-11T16:01:46.994Z,19.66
2022-09-11T16:04:18.876Z,19.66
2022-09-11T16:06:47.543Z,19.59
2022-09-11T16:09:19.735Z,19.59
2022-09-11T16:11:47.874Z,19.57
2022-09-11T16:14:23.236Z,19.52
2022-09-11T16:16:50.709Z,19.52
2022-09-11T16:19:19.918Z,19.51
2022-09-11T16:21:46.904Z,19.48
2022-09-11T16:24:15.709Z,19.45
2022-09-11T16:26:44.017Z,19.43
2022-09-11T16:29:12.343Z,19.41
2022-09-11T16:31:40.029Z,19.39
2022-09-11T16:34:06.972Z,19.36
2022-09-11T16:36:38.375Z,19.34
2022-09-11T16:39:06.414Z,19.31
2022-09-11T16:41:32.825Z,19.30
2022-09-11T16:44:00.018Z,19.27
2022-09-11T16:46:26.921Z,19.24
2022-09-11T16:48:59.798Z,19.24
2022-09-11T16:51:28.291Z,19.21
2022-09-11T16:53:54.718Z,19.18
2022-09-11T16:56:23.091Z,19.14
2022-09-11T16:58:49.545Z,19.09
2022-09-11T17:01:18.911Z,19.09
2022-09-11T17:03:48.430Z,19.09
2022-09-11T17:06:16.656Z,19.06
2022-09-11T17:08:44.570Z,19.08
2022-09-11T17:11:14.441Z,19.05
2022-09-11T17:13:41.783Z,19.01
2022-09-11T17:16:16.111Z,19.02
2022-09-11T17:18:53.341Z,18.95
2022-09-11T17:21:22.877Z,18.94
2022-09-11T17:23:50.358Z,18.88
2022-09-11T17:26:17.077Z,18.82
2022-09-11T17:28:47.101Z,18.79
2022-09-11T17:31:14.705Z,18.77
2022-09-11T17:33:42.284Z,18.77
2022-09-11T17:36:10.348Z,18.71
2022-09-11T17:38:38.306Z,18.67
2022-09-11T17:41:08.007Z,18.68
2022-09-11T17:43:36.114Z,18.58
2022-09-11T17:46:05.564Z,18.56
2022-09-11T17:48:32.279Z,18.47
2022-09-11T17:51:03.638Z,18.29
2022-09-11T17:53:38.724Z,18.32
2022-09-11T17:56:14.838Z,18.26
2022-09-11T17:58:43.881Z,18.19
2022-09-11T18:01:16.509Z,18.17
2022-09-11T18:03:44.044Z,18.18
2022-09-11T18:06:18.618Z,18.18
2022-09-11T18:08:46.134Z,18.11
2022-09-11T18:11:12.712Z,18.11
2022-09-11T18:13:39.569Z,17.97
2022-09-11T18:16:10.855Z,17.84
2022-09-11T18:18:39.345Z,17.87
2022-09-11T18:21:10.482Z,17.90
2022-09-11T18:23:39.636Z,17.88
2022-09-11T18:26:07.185Z,17.92
2022-09-11T18:28:34.122Z,17.79
2022-09-11T18:31:01.760Z,17.72
2022-09-11T18:33:28.256Z,17.73
2022-09-11T18:35:54.734Z,17.66
2022-09-11T18:38:21.106Z,17.69
2022-09-11T18:40:55.950Z,17.72
2022-09-11T18:43:22.327Z,17.66
2022-09-11T18:45:48.696Z,17.60
2022-09-11T18:48:15.282Z,17.48
2022-09-11T18:50:41.651Z,17.55
2022-09-11T18:53:08.113Z,17.48
2022-09-11T18:55:34.510Z,17.52
2022-09-11T18:58:01.648Z,17.52
2022-09-11T19:00:28.458Z,17.46
2022-09-11T19:02:56.420Z,17.21
2022-09-11T19:05:24.990Z,17.30
2022-09-11T19:07:51.649Z,17.29
2022-09-11T19:10:18.348Z,17.32
2022-09-11T19:12:47.979Z,17.23
2022-09-11T19:15:14.397Z,16.97
2022-09-11T19:17:40.811Z,16.97
2022-09-11T19:20:09.640Z,16.92
2022-09-11T19:22:36.016Z,17.00
2022-09-11T19:25:02.445Z,17.04
2022-09-11T19:27:31.541Z,17.09
2022-09-11T19:29:58.232Z,16.99
2022-09-11T19:32:25.134Z,17.00
2022-09-11T19:34:51.625Z,16.91
2022-09-11T19:37:20.024Z,16.91
2022-09-11T19:39:48.305Z,16.84
2022-09-11T19:42:14.686Z,16.75
2022-09-11T19:44:41.202Z,16.80
2022-09-11T19:47:07.935Z,16.68
2022-09-11T19:49:34.317Z,16.71
2022-09-11T19:52:01.555Z,16.73
2022-09-11T19:54:30.117Z,16.76
2022-09-11T19:56:56.609Z,16.71
2022-09-11T19:59:23.102Z,16.70
2022-09-11T20:01:49.492Z,16.67
2022-09-11T20:04:17.561Z,16.66
2022-09-11T20:12:16.360Z,16.48
2022-09-11T20:14:42.964Z,16.42
2022-09-11T20:17:10.135Z,16.41
2022-09-11T20:19:36.584Z,16.36
2022-09-11T20:22:03.012Z,16.33
2022-09-11T20:24:29.377Z,16.37
2022-09-11T20:26:55.757Z,16.37
2022-09-11T20:29:22.082Z,16.36
2022-09-11T20:31:50.985Z,16.26
2022-09-11T20:34:18.865Z,16.29
2022-09-11T20:36:45.797Z,16.12
2022-09-11T20:39:16.130Z,16.13
2022-09-11T20:41:42.988Z,16.21
2022-09-11T20:44:09.897Z,16.10
2022-09-11T20:46:36.441Z,15.93
2022-09-11T20:49:04.590Z,16.04
2022-09-11T20:51:32.921Z,16.11
2022-09-11T20:54:00.574Z,16.04
2022-09-11T20:56:27.956Z,16.02
2022-09-11T20:58:54.322Z,15.93
2022-09-11T21:01:22.788Z,15.98
2022-09-11T21:03:54.744Z,15.91
2022-09-11T21:06:26.126Z,15.98
2022-09-11T21:08:55.271Z,15.91
2022-09-11T21:11:21.980Z,15.79
2022-09-11T21:13:48.546Z,15.87
2022-09-11T21:16:16.005Z,15.82
2022-09-11T21:18:54.510Z,15.78
2022-09-11T21:21:22.552Z,15.65
2022-09-11T21:23:53.171Z,15.66
2022-09-11T21:26:19.574Z,15.68
2022-09-11T21:28:45.999Z,15.70
2022-09-11T21:31:12.656Z,15.60
2022-09-11T21:33:39.705Z,15.65
2022-09-11T21:36:07.218Z,15.69
2022-09-11T21:38:33.716Z,15.67
2022-09-11T21:41:02.416Z,15.66
2022-09-11T21:43:29.110Z,15.69
2022-09-11T21:45:56.120Z,15.58
2022-09-11T21:48:23.331Z,15.54
2022-09-11T21:50:50.190Z,15.46
2022-09-11T21:53:17.063Z,15.49
2022-09-11T21:55:45.420Z,15.55
2022-09-11T21:58:15.975Z,15.50
2022-09-11T22:00:43.455Z,15.46
2022-09-11T22:03:16.617Z,15.42
2022-09-11T22:05:44.990Z,15.31
2022-09-11T22:08:13.418Z,15.31
2022-09-11T22:10:48.379Z,15.37
2022-09-11T22:13:15.711Z,15.22
2022-09-11T22:15:43.853Z,15.23
2022-09-11T22:18:10.465Z,15.19
2022-09-11T22:20:37.714Z,15.18
2022-09-11T22:23:04.969Z,15.15
2022-09-11T22:25:32.792Z,15.16
2022-09-11T22:27:59.335Z,14.95
2022-09-11T22:30:27.902Z,14.88
2022-09-11T22:32:54.581Z,15.02
2022-09-11T22:35:20.947Z,15.10
2022-09-11T22:37:47.293Z,15.18
2022-09-11T22:40:13.673Z,15.11
2022-09-11T22:42:40.088Z,15.09
2022-09-11T22:45:07.868Z,15.15
2022-09-11T22:47:35.136Z,15.00
2022-09-11T22:50:01.845Z,15.00
2022-09-11T22:52:29.076Z,14.97
2022-09-11T22:54:55.430Z,14.98
2022-09-11T22:57:21.915Z,14.96
2022-09-11T22:59:48.942Z,15.01
2022-09-11T23:02:15.480Z,15.04
2022-09-11T23:05:04.789Z,15.06
2022-09-11T23:07:31.142Z,14.98
2022-09-11T23:09:57.613Z,14.97
2022-09-11T23:12:24.534Z,15.04
2022-09-11T23:14:52.542Z,14.96
2022-09-11T23:17:18.874Z,14.90
2022-09-11T23:19:45.315Z,14.81
2022-09-11T23:22:11.714Z,14.92
2022-09-11T23:24:38.055Z,14.91
2022-09-11T23:27:04.580Z,14.86
2022-09-11T23:29:30.966Z,14.86
2022-09-11T23:31:57.529Z,14.76
2022-09-11T23:34:23.911Z,14.83
2022-09-11T23:36:50.379Z,14.81
2022-09-11T23:39:16.746Z,14.80
2022-09-11T23:41:43.110Z,14.75
2022-09-11T23:44:10.078Z,14.56
2022-09-11T23:46:36.471Z,14.54
2022-09-11T23:49:02.896Z,14.52
2022-09-11T23:51:29.256Z,14.36
2022-09-11T23:53:55.584Z,14.38
2022-09-11T23:56:22.444Z,14.35
2022-09-11T23:58:49.399Z,14.31
